Time;durP1;ratioP1;P1;durP2;ratioP2;P2;SDS_P1;SDS_P2;PMS_P1;PMS_P2;Temp;Humidity;BMP_temperature;BMP_pressure;BME280_temperature;BME280_humidity;BME280_pressure;Samples;Min_cycle;Max_cycle;Signal;HPM_P1;HPM_P2
2023/10/05 00:02:04;;;;;;;3.65;2.40;;;;;;;;;;5099200;28;20259;-92
2023/10/05 00:04:40;;;;;;;7.05;3.65;;;;;;;;;;5102610;28;20234;-93
2023/10/05 00:07:11;;;;;;;4.25;2.75;;;;;;;;;;5098072;28;20196;-92
2023/10/05 00:09:40;;;;;;;4.78;3.00;;;;;;;;;;5097122;28;20272;-92
2023/10/05 00:12:13;;;;;;;4.60;2.90;;;;;;;;;;5075749;28;20205;-93
2023/10/05 00:14:41;;;;;;;4.00;2.78;;;;;;;;;;5074531;28;20197;-92
2023/10/05 00:17:08;;;;;;;4.82;3.10;;;;;;;;;;5073884;28;20663;-92
2023/10/05 00:19:39;;;;;;;4.50;2.88;;;;;;;;;;5072881;28;20221;-92
2023/10/05 00:22:08;;;;;;;6.28;2.97;;;;;;;;;;5073180;28;20254;-92
2023/10/05 00:24:37;;;;;;;3.55;2.55;;;;;;;;;;5072634;28;20211;-92
2023/10/05 00:27:08;;;;;;;2.83;2.22;;;;;;;;;;5073460;28;20227;-92
2023/10/05 00:29:41;;;;;;;4.65;3.10;;;;;;;;;;5073002;28;20312;-92
2023/10/05 00:32:15;;;;;;;4.10;2.13;;;;;;;;;;5087659;28;20242;-92
2023/10/05 00:34:44;;;;;;;3.03;2.72;;;;;;;;;;5075679;28;20576;-92
2023/10/05 00:37:14;;;;;;;2.85;2.58;;;;;;;;;;5072681;28;20200;-93
2023/10/05 00:39:48;;;;;;;4.03;2.75;;;;;;;;;;5072398;28;20225;-91
2023/10/05 00:42:16;;;;;;;3.17;2.42;;;;;;;;;;5072795;28;20246;-92
2023/10/05 00:44:44;;;;;;;3.50;2.60;;;;;;;;;;5077832;28;20205;-92
2023/10/05 00:47:13;;;;;;;5.68;3.28;;;;;;;;;;5076757;28;20208;-92
2023/10/05 00:49:51;;;;;;;2.70;2.10;;;;;;;;;;5072486;28;20221;-91
2023/10/05 00:52:24;;;;;;;2.45;2.10;;;;;;;;;;5072417;28;20666;-92
2023/10/05 00:54:56;;;;;;;3.78;2.85;;;;;;;;;;5072710;28;20212;-92
2023/10/05 00:57:24;;;;;;;5.85;3.80;;;;;;;;;;5072345;28;20196;-91
2023/10/05 01:00:13;;;;;;;4.05;2.92;;;;;;;;;;5072031;28;20675;-92
2023/10/05 01:03:00;;;;;;;4.38;2.75;;;;;;;;;;5091911;28;20220;-91
2023/10/05 01:05:35;;;;;;;4.53;3.67;;;;;;;;;;5092535;28;20253;-92
2023/10/05 01:08:13;;;;;;;7.60;4.03;;;;;;;;;;5092502;28;20212;-92
2023/10/05 01:10:45;;;;;;;5.07;3.33;;;;;;;;;;5092405;28;20285;-91
2023/10/05 01:13:31;;;;;;;3.90;2.83;;;;;;;;;;5093163;28;20577;-92
2023/10/05 01:15:59;;;;;;;4.32;3.20;;;;;;;;;;5092566;28;20666;-92
2023/10/05 01:18:29;;;;;;;4.70;3.00;;;;;;;;;;5092283;28;20228;-92
2023/10/05 01:20:57;;;;;;;4.13;2.92;;;;;;;;;;5092602;28;20274;-92
2023/10/05 01:23:38;;;;;;;4.43;3.08;;;;;;;;;;5092638;28;20214;-92
2023/10/05 01:26:10;;;;;;;5.15;3.47;;;;;;;;;;5092677;28;20239;-92
2023/10/05 01:28:40;;;;;;;5.15;2.78;;;;;;;;;;5093729;28;20208;-92
2023/10/05 01:31:12;;;;;;;3.75;2.70;;;;;;;;;;5094105;28;20227;-92
2023/10/05 01:33:40;;;;;;;2.72;2.40;;;;;;;;;;5083749;28;20192;-92
2023/10/05 01:36:08;;;;;;;4.75;2.70;;;;;;;;;;5092381;28;20200;-92
2023/10/05 01:38:37;;;;;;;4.40;2.85;;;;;;;;;;5093699;28;20200;-93
2023/10/05 01:41:07;;;;;;;5.38;3.10;;;;;;;;;;5099083;28;20255;-91
2023/10/05 01:43:35;;;;;;;5.75;3.10;;;;;;;;;;5092093;28;20648;-91
2023/10/05 01:46:04;;;;;;;2.85;2.35;;;;;;;;;;5094229;28;20244;-91
2023/10/05 01:48:33;;;;;;;3.35;2.60;;;;;;;;;;5096030;28;20611;-91
2023/10/05 01:51:08;;;;;;;6.43;3.13;;;;;;;;;;5095631;28;20311;-92
2023/10/05 01:53:37;;;;;;;5.57;3.30;;;;;;;;;;5095608;28;20200;-92
2023/10/05 01:56:17;;;;;;;3.70;2.83;;;;;;;;;;5095513;28;20258;-93
2023/10/05 01:58:50;;;;;;;5.00;3.17;;;;;;;;;;5095314;28;20203;-92
2023/10/05 02:01:20;;;;;;;3.35;2.67;;;;;;;;;;5092575;28;20208;-92
2023/10/05 02:03:50;;;;;;;5.35;2.90;;;;;;;;;;5085982;28;20225;-91
2023/10/05 02:06:18;;;;;;;4.70;2.28;;;;;;;;;;5075268;28;20606;-92
2023/10/05 02:08:47;;;;;;;3.10;2.15;;;;;;;;;;5074728;28;20220;-92
2023/10/05 02:11:19;;;;;;;2.45;1.90;;;;;;;;;;5075104;28;20651;-92
2023/10/05 02:13:48;;;;;;;3.55;2.15;;;;;;;;;;5075006;28;20201;-92
2023/10/05 02:16:18;;;;;;;3.88;2.85;;;;;;;;;;5075583;28;20205;-92
2023/10/05 02:18:47;;;;;;;5.22;3.35;;;;;;;;;;5074991;28;20196;-92
2023/10/05 02:21:17;;;;;;;3.08;2.58;;;;;;;;;;5074921;28;20205;-92
2023/10/05 02:23:50;;;;;;;3.65;2.20;;;;;;;;;;5074633;28;20198;-92
2023/10/05 02:26:25;;;;;;;2.75;2.38;;;;;;;;;;5075430;28;20228;-92
2023/10/05 02:28:55;;;;;;;3.15;2.50;;;;;;;;;;5094849;28;20192;-92
2023/10/05 02:31:22;;;;;;;5.00;2.60;;;;;;;;;;5108703;28;20192;-93
2023/10/05 02:33:52;;;;;;;2.80;2.15;;;;;;;;;;5111657;28;20198;-93
2023/10/05 02:36:21;;;;;;;3.25;2.30;;;;;;;;;;5120082;28;20183;-92
2023/10/05 02:38:53;;;;;;;2.92;2.20;;;;;;;;;;5119678;28;20181;-93
2023/10/05 02:41:25;;;;;;;2.65;2.30;;;;;;;;;;5110873;28;20204;-91
2023/10/05 02:43:53;;;;;;;3.30;2.08;;;;;;;;;;5099905;28;20287;-92
2023/10/05 02:46:24;;;;;;;5.45;2.92;;;;;;;;;;5097226;28;20227;-91
2023/10/05 02:48:51;;;;;;;4.25;2.88;;;;;;;;;;5096628;28;20206;-91
2023/10/05 02:51:20;;;;;;;4.97;2.58;;;;;;;;;;5095788;28;20204;-91
2023/10/05 02:54:03;;;;;;;3.58;2.72;;;;;;;;;;5094849;28;20209;-91
2023/10/05 02:56:33;;;;;;;3.45;2.28;;;;;;;;;;5094494;28;20204;-92
2023/10/05 02:59:02;;;;;;;2.78;2.10;;;;;;;;;;5094450;28;20224;-92
2023/10/05 03:01:32;;;;;;;3.30;3.00;;;;;;;;;;5084495;28;20237;-91
2023/10/05 03:04:04;;;;;;;4.32;2.10;;;;;;;;;;5074131;28;20212;-92
2023/10/05 03:06:31;;;;;;;3.40;2.58;;;;;;;;;;5074208;28;20737;-91
2023/10/05 03:09:07;;;;;;;10.73;3.05;;;;;;;;;;5074045;28;20205;-92
2023/10/05 03:11:37;;;;;;;6.13;3.53;;;;;;;;;;5074013;28;20288;-92
2023/10/05 03:14:05;;;;;;;5.50;2.90;;;;;;;;;;5074192;28;20708;-92
2023/10/05 03:16:42;;;;;;;2.75;2.30;;;;;;;;;;5073972;28;20262;-92
2023/10/05 03:19:12;;;;;;;4.55;2.80;;;;;;;;;;5073520;28;20224;-92
2023/10/05 03:21:40;;;;;;;3.00;2.45;;;;;;;;;;5073793;28;20201;-91
2023/10/05 03:24:13;;;;;;;3.15;2.40;;;;;;;;;;5074037;28;20678;-92
2023/10/05 03:26:42;;;;;;;5.15;2.47;;;;;;;;;;5078688;28;20646;-92
2023/10/05 03:29:11;;;;;;;4.18;2.50;;;;;;;;;;5078496;28;20259;-93
2023/10/05 03:31:43;;;;;;;3.60;3.13;;;;;;;;;;5076591;28;20593;-94
2023/10/05 03:34:11;;;;;;;3.33;2.15;;;;;;;;;;5078690;28;20216;-93
2023/10/05 03:36:47;;;;;;;4.32;2.90;;;;;;;;;;5094141;28;20735;-92
2023/10/05 03:39:17;;;;;;;3.50;2.83;;;;;;;;;;5093521;28;20254;-92
2023/10/05 03:41:45;;;;;;;3.53;2.50;;;;;;;;;;5078933;28;20228;-92
2023/10/05 03:44:15;;;;;;;2.20;1.90;;;;;;;;;;5083287;28;20702;-93
2023/10/05 03:46:46;;;;;;;3.58;2.28;;;;;;;;;;5084167;28;20217;-92
2023/10/05 03:49:15;;;;;;;3.33;2.38;;;;;;;;;;5071227;28;20220;-92
2023/10/05 03:51:49;;;;;;;2.85;2.17;;;;;;;;;;5071179;28;20232;-93
2023/10/05 03:54:18;;;;;;;4.85;2.88;;;;;;;;;;5071659;28;20232;-93
2023/10/05 03:56:50;;;;;;;4.10;2.60;;;;;;;;;;5071640;28;20205;-92
2023/10/05 03:59:18;;;;;;;2.47;1.95;;;;;;;;;;5071067;28;20240;-92
2023/10/05 04:01:48;;;;;;;3.35;2.55;;;;;;;;;;5071545;28;20440;-92
2023/10/05 04:04:17;;;;;;;8.27;2.63;;;;;;;;;;5071517;28;20225;-93
2023/10/05 04:06:44;;;;;;;3.50;2.53;;;;;;;;;;5070748;28;20690;-91
2023/10/05 04:09:15;;;;;;;5.22;3.47;;;;;;;;;;5070435;28;20229;-92
2023/10/05 04:11:45;;;;;;;2.22;2.03;;;;;;;;;;5071806;28;20250;-93
2023/10/05 04:14:13;;;;;;;2.85;2.50;;;;;;;;;;5075330;28;20279;-92
2023/10/05 04:16:42;;;;;;;3.42;2.33;;;;;;;;;;5090913;28;20283;-92
2023/10/05 04:19:11;;;;;;;2.88;2.60;;;;;;;;;;5090849;28;20224;-92
2023/10/05 04:21:40;;;;;;;2.85;2.50;;;;;;;;;;5090649;28;20204;-94
2023/10/05 04:24:14;;;;;;;2.78;2.22;;;;;;;;;;5090989;28;20632;-91
2023/10/05 04:26:45;;;;;;;3.65;2.70;;;;;;;;;;5090626;28;20208;-92
2023/10/05 04:29:14;;;;;;;4.85;2.80;;;;;;;;;;5091089;28;20277;-92
2023/10/05 04:31:48;;;;;;;3.00;2.25;;;;;;;;;;5113789;28;20185;-93
2023/10/05 04:34:18;;;;;;;3.50;2.28;;;;;;;;;;5116443;28;20200;-93
2023/10/05 04:36:46;;;;;;;2.97;2.17;;;;;;;;;;5116307;28;20192;-93
2023/10/05 04:39:21;;;;;;;2.05;1.70;;;;;;;;;;5100656;28;20297;-92
2023/10/05 04:41:50;;;;;;;4.95;2.97;;;;;;;;;;5088223;28;20204;-92
2023/10/05 04:44:18;;;;;;;3.22;1.70;;;;;;;;;;5084002;28;20206;-91
2023/10/05 04:46:48;;;;;;;5.20;2.70;;;;;;;;;;5091185;28;20647;-92
2023/10/05 04:49:16;;;;;;;4.18;2.30;;;;;;;;;;5090309;28;20228;-92
2023/10/05 04:51:44;;;;;;;2.50;2.20;;;;;;;;;;5090487;28;20207;-91
2023/10/05 04:54:18;;;;;;;2.70;2.15;;;;;;;;;;5090526;28;20264;-92
2023/10/05 04:56:53;;;;;;;2.55;1.83;;;;;;;;;;5090873;28;20208;-91
2023/10/05 04:59:37;;;;;;;3.22;2.10;;;;;;;;;;5090526;28;20219;-93
2023/10/05 05:02:17;;;;;;;4.82;2.40;;;;;;;;;;5099329;28;20741;-91
2023/10/05 05:05:07;;;;;;;2.55;2.00;;;;;;;;;;5090907;28;20207;-92
2023/10/05 05:07:36;;;;;;;2.75;1.83;;;;;;;;;;5099514;28;20281;-91
2023/10/05 05:10:06;;;;;;;3.38;2.35;;;;;;;;;;5090846;28;20232;-92
2023/10/05 05:12:35;;;;;;;5.40;2.70;;;;;;;;;;5088547;28;20207;-91
2023/10/05 05:15:06;;;;;;;3.78;2.50;;;;;;;;;;5081896;28;20734;-91
2023/10/05 05:17:34;;;;;;;4.50;2.50;;;;;;;;;;5090763;28;20209;-92
2023/10/05 05:20:11;;;;;;;5.60;2.42;;;;;;;;;;5092998;28;20623;-92
2023/10/05 05:22:39;;;;;;;2.88;2.05;;;;;;;;;;5096726;28;20661;-92
2023/10/05 05:25:08;;;;;;;2.97;2.05;;;;;;;;;;5094480;28;20245;-93
2023/10/05 05:27:36;;;;;;;3.50;2.28;;;;;;;;;;5094299;28;20270;-92
2023/10/05 05:30:19;;;;;;;5.60;3.38;;;;;;;;;;5097433;28;20236;-92
2023/10/05 05:32:47;;;;;;;3.00;2.20;;;;;;;;;;5115900;28;20208;-91
2023/10/05 05:35:16;;;;;;;3.28;2.13;;;;;;;;;;5119790;28;20314;-92
2023/10/05 05:37:44;;;;;;;2.92;2.22;;;;;;;;;;5119510;28;20184;-92
2023/10/05 05:40:12;;;;;;;2.65;2.08;;;;;;;;;;5119267;28;20224;-92
2023/10/05 05:42:40;;;;;;;4.05;2.58;;;;;;;;;;5100567;28;20181;-93
2023/10/05 05:45:16;;;;;;;2.92;2.10;;;;;;;;;;5096447;28;20665;-91
2023/10/05 05:47:45;;;;;;;4.32;2.50;;;;;;;;;;5085502;28;20206;-91
2023/10/05 05:50:17;;;;;;;2.47;1.85;;;;;;;;;;5080416;28;20307;-92
2023/10/05 05:52:47;;;;;;;4.65;2.60;;;;;;;;;;5079000;28;20201;-92
2023/10/05 05:55:20;;;;;;;3.30;2.08;;;;;;;;;;5084020;28;20217;-92
2023/10/05 05:57:48;;;;;;;2.58;2.35;;;;;;;;;;5078135;28;20204;-93
2023/10/05 06:00:17;;;;;;;3.63;2.97;;;;;;;;;;5091109;28;20252;-91
2023/10/05 06:02:46;;;;;;;2.60;2.15;;;;;;;;;;5085848;28;20201;-91
2023/10/05 06:05:15;;;;;;;4.82;3.08;;;;;;;;;;5096450;28;20644;-91
2023/10/05 06:07:44;;;;;;;2.05;1.60;;;;;;;;;;5096434;28;20212;-91
2023/10/05 06:10:16;;;;;;;2.05;1.70;;;;;;;;;;5095140;28;20246;-91
2023/10/05 06:12:45;;;;;;;4.88;2.40;;;;;;;;;;5095329;28;20200;-91
2023/10/05 06:15:14;;;;;;;3.55;2.03;;;;;;;;;;5095738;28;20204;-92
2023/10/05 06:17:44;;;;;;;2.10;1.80;;;;;;;;;;5096622;28;20200;-92
2023/10/05 06:20:14;;;;;;;2.20;1.98;;;;;;;;;;5096436;28;20265;-92
2023/10/05 06:22:44;;;;;;;2.33;2.13;;;;;;;;;;5097267;28;20193;-91
2023/10/05 06:25:12;;;;;;;3.38;2.20;;;;;;;;;;5097350;28;20200;-92
2023/10/05 06:27:40;;;;;;;4.18;2.70;;;;;;;;;;5099071;28;20605;-91
2023/10/05 06:30:10;;;;;;;5.07;2.70;;;;;;;;;;5094233;28;20250;-92
2023/10/05 06:32:38;;;;;;;2.03;1.77;;;;;;;;;;5094854;28;20261;-92
2023/10/05 06:35:09;;;;;;;2.83;2.17;;;;;;;;;;5095715;28;20308;-91
2023/10/05 06:37:38;;;;;;;2.30;1.73;;;;;;;;;;5095132;28;20204;-91
2023/10/05 06:40:12;;;;;;;3.15;2.00;;;;;;;;;;5094944;28;20307;-92
2023/10/05 06:42:41;;;;;;;2.42;2.20;;;;;;;;;;5095076;28;20216;-91
2023/10/05 06:45:11;;;;;;;4.10;2.67;;;;;;;;;;5095305;28;20210;-91
2023/10/05 06:47:38;;;;;;;3.40;3.03;;;;;;;;;;5094999;28;20220;-91
2023/10/05 06:50:10;;;;;;;2.90;2.03;;;;;;;;;;5094415;28;20239;-91
2023/10/05 06:52:39;;;;;;;3.72;2.20;;;;;;;;;;5094937;28;20680;-91
2023/10/05 06:55:08;;;;;;;3.00;2.70;;;;;;;;;;5095184;28;20204;-93
2023/10/05 06:57:37;;;;;;;2.50;1.73;;;;;;;;;;5097436;28;20216;-91
2023/10/05 07:00:16;;;;;;;3.25;2.28;;;;;;;;;;5085694;28;20225;-91
2023/10/05 07:02:44;;;;;;;4.60;2.80;;;;;;;;;;5094754;28;20236;-91
2023/10/05 07:05:14;;;;;;;3.45;2.00;;;;;;;;;;5094805;28;20200;-91
2023/10/05 07:07:42;;;;;;;2.75;1.85;;;;;;;;;;5094287;28;20313;-91
2023/10/05 07:10:13;;;;;;;3.58;2.70;;;;;;;;;;5093791;28;20308;-92
2023/10/05 07:12:45;;;;;;;2.85;1.55;;;;;;;;;;5094411;28;20215;-92
2023/10/05 07:15:13;;;;;;;3.35;2.05;;;;;;;;;;5094123;28;20557;-91
2023/10/05 07:17:41;;;;;;;2.72;1.73;;;;;;;;;;5094088;28;20556;-91
2023/10/05 07:20:11;;;;;;;4.32;2.33;;;;;;;;;;5093569;28;20224;-92
2023/10/05 07:22:41;;;;;;;2.90;2.08;;;;;;;;;;5100029;28;20204;-92
2023/10/05 07:25:11;;;;;;;2.35;2.03;;;;;;;;;;5094481;28;20223;-91
2023/10/05 07:27:41;;;;;;;2.55;1.92;;;;;;;;;;5093560;28;20670;-91
2023/10/05 07:30:10;;;;;;;3.15;2.15;;;;;;;;;;5093199;28;20592;-92
2023/10/05 07:32:38;;;;;;;5.50;2.70;;;;;;;;;;5093841;28;20608;-91
2023/10/05 07:35:07;;;;;;;2.55;1.80;;;;;;;;;;5093968;28;20287;-92
2023/10/05 07:37:35;;;;;;;2.33;1.83;;;;;;;;;;5094235;28;20200;-92
2023/10/05 07:40:07;;;;;;;3.40;1.90;;;;;;;;;;5093733;28;20608;-91
2023/10/05 07:42:37;;;;;;;4.18;2.28;;;;;;;;;;5093531;28;20693;-91
2023/10/05 07:45:07;;;;;;;3.63;2.10;;;;;;;;;;5093553;28;20200;-91
2023/10/05 07:47:41;;;;;;;2.78;2.00;;;;;;;;;;5093331;28;20200;-91
2023/10/05 07:50:10;;;;;;;3.03;2.22;;;;;;;;;;5093307;28;20228;-91
2023/10/05 07:52:38;;;;;;;5.13;2.53;;;;;;;;;;5093688;28;20192;-92
2023/10/05 07:55:09;;;;;;;5.15;3.33;;;;;;;;;;5093358;28;20207;-92
2023/10/05 07:57:37;;;;;;;5.13;2.92;;;;;;;;;;5093547;28;20283;-92
2023/10/05 08:00:11;;;;;;;4.30;2.70;;;;;;;;;;5092258;28;20231;-92
2023/10/05 08:02:39;;;;;;;4.45;3.40;;;;;;;;;;5093324;28;20212;-92
2023/10/05 08:05:08;;;;;;;2.95;2.65;;;;;;;;;;5093083;28;20196;-92
2023/10/05 08:07:36;;;;;;;3.75;2.70;;;;;;;;;;5093476;28;20208;-91
2023/10/05 08:10:04;;;;;;;4.47;3.10;;;;;;;;;;5093339;28;20312;-92
2023/10/05 08:12:33;;;;;;;3.22;2.35;;;;;;;;;;5093581;28;20192;-91
2023/10/05 08:15:02;;;;;;;3.13;2.63;;;;;;;;;;5092512;28;20719;-91
2023/10/05 08:17:30;;;;;;;3.90;2.65;;;;;;;;;;5093875;28;20287;-91
2023/10/05 08:19:57;;;;;;;4.63;3.00;;;;;;;;;;5093520;28;20283;-91
2023/10/05 08:22:26;;;;;;;5.35;3.25;;;;;;;;;;5093193;28;20227;-91
2023/10/05 08:24:53;;;;;;;3.63;2.80;;;;;;;;;;5093947;28;20204;-92
2023/10/05 08:27:22;;;;;;;2.97;2.35;;;;;;;;;;5095918;28;20211;-91
2023/10/05 08:29:51;;;;;;;4.03;2.30;;;;;;;;;;5119084;28;20219;-92
2023/10/05 08:32:25;;;;;;;4.60;3.00;;;;;;;;;;5119468;28;20184;-93
2023/10/05 08:34:52;;;;;;;3.20;2.30;;;;;;;;;;5119471;28;20208;-93
2023/10/05 08:37:22;;;;;;;5.55;2.95;;;;;;;;;;5119252;28;20188;-92
2023/10/05 08:39:51;;;;;;;3.17;2.53;;;;;;;;;;5118475;28;20276;-93
2023/10/05 08:42:19;;;;;;;2.97;2.33;;;;;;;;;;5113952;28;20196;-92
2023/10/05 08:44:47;;;;;;;7.65;2.58;;;;;;;;;;5103878;28;20238;-91
2023/10/05 08:47:17;;;;;;;3.40;2.25;;;;;;;;;;5096655;28;20666;-92
2023/10/05 08:49:46;;;;;;;4.72;2.40;;;;;;;;;;5095385;28;20226;-91
2023/10/05 08:52:19;;;;;;;2.13;1.77;;;;;;;;;;5095234;28;20283;-92
2023/10/05 08:54:47;;;;;;;4.95;2.60;;;;;;;;;;5099187;28;20184;-92
2023/10/05 08:57:16;;;;;;;2.78;2.17;;;;;;;;;;5099940;28;20240;-92
2023/10/05 08:59:46;;;;;;;3.25;2.05;;;;;;;;;;5090478;28;20209;-91
2023/10/05 09:02:18;;;;;;;5.43;3.42;;;;;;;;;;5076452;28;20184;-94
2023/10/05 09:04:57;;;;;;;3.80;2.38;;;;;;;;;;5081870;28;20209;-92
2023/10/05 09:07:29;;;;;;;1.80;1.58;;;;;;;;;;5081416;28;20193;-93
2023/10/05 09:09:57;;;;;;;2.08;1.83;;;;;;;;;;5058587;28;20580;-91
2023/10/05 09:12:37;;;;;;;3.97;1.60;;;;;;;;;;5057134;28;20209;-91
2023/10/05 09:15:18;;;;;;;4.70;2.42;;;;;;;;;;5057141;28;20198;-92
2023/10/05 09:18:18;;;;;;;2.10;1.50;;;;;;;;;;5056960;28;20751;-92
2023/10/05 09:20:48;;;;;;;2.10;1.88;;;;;;;;;;5056696;28;20224;-91
2023/10/05 09:23:20;;;;;;;4.05;2.10;;;;;;;;;;5059160;28;20194;-91
2023/10/05 09:25:48;;;;;;;2.65;2.13;;;;;;;;;;5057717;28;20232;-91
2023/10/05 09:28:35;;;;;;;4.03;2.00;;;;;;;;;;5057255;28;20288;-91
2023/10/05 09:31:07;;;;;;;3.30;2.08;;;;;;;;;;5086996;28;20618;-91
2023/10/05 09:33:49;;;;;;;2.47;1.92;;;;;;;;;;5097768;28;20607;-91
2023/10/05 09:36:19;;;;;;;2.58;1.92;;;;;;;;;;5097245;28;20257;-92
2023/10/05 09:38:48;;;;;;;3.92;2.00;;;;;;;;;;5096907;28;20212;-91
2023/10/05 09:41:18;;;;;;;4.20;1.80;;;;;;;;;;5096723;28;20208;-91
2023/10/05 09:43:47;;;;;;;2.20;1.80;;;;;;;;;;5096803;28;20209;-90
2023/10/05 09:46:17;;;;;;;1.48;1.38;;;;;;;;;;5096846;28;20211;-91
2023/10/05 09:48:46;;;;;;;1.30;1.20;;;;;;;;;;5097528;28;20192;-91
2023/10/05 09:51:14;;;;;;;1.75;1.50;;;;;;;;;;5096191;28;20220;-91
2023/10/05 09:53:43;;;;;;;2.22;1.88;;;;;;;;;;5096176;28;20200;-91
2023/10/05 09:56:13;;;;;;;3.22;1.65;;;;;;;;;;5097348;28;20745;-91
2023/10/05 09:58:42;;;;;;;2.97;1.80;;;;;;;;;;5096193;28;20204;-91
2023/10/05 10:01:20;;;;;;;1.67;1.42;;;;;;;;;;5087087;28;20220;-91
2023/10/05 10:03:49;;;;;;;2.75;1.88;;;;;;;;;;5096509;28;20257;-91
2023/10/05 10:06:19;;;;;;;2.45;2.15;;;;;;;;;;5095385;28;20202;-92
2023/10/05 10:08:53;;;;;;;1.75;1.65;;;;;;;;;;5095563;28;20286;-91
2023/10/05 10:11:24;;;;;;;2.15;1.70;;;;;;;;;;5095781;28;20250;-91
2023/10/05 10:14:00;;;;;;;4.53;2.40;;;;;;;;;;5096112;28;20242;-90
2023/10/05 10:16:29;;;;;;;2.20;1.38;;;;;;;;;;5095768;28;20201;-91
2023/10/05 10:19:07;;;;;;;1.35;1.17;;;;;;;;;;5095746;28;20283;-91
2023/10/05 10:21:41;;;;;;;1.75;1.60;;;;;;;;;;5095234;28;20292;-91
2023/10/05 10:24:14;;;;;;;1.30;1.20;;;;;;;;;;5095961;28;20223;-91
2023/10/05 10:26:44;;;;;;;2.83;1.58;;;;;;;;;;5095457;28;20634;-92
2023/10/05 10:29:12;;;;;;;2.33;1.33;;;;;;;;;;5091583;28;20221;-92
2023/10/05 10:31:43;;;;;;;3.70;2.58;;;;;;;;;;5081301;28;20613;-93
2023/10/05 10:34:42;;;;;;;3.22;1.70;;;;;;;;;;5096073;28;20287;-91
2023/10/05 10:37:10;;;;;;;1.75;1.58;;;;;;;;;;5095815;28;20224;-91
2023/10/05 10:39:38;;;;;;;2.30;1.63;;;;;;;;;;5095105;28;20502;-92
2023/10/05 10:42:07;;;;;;;2.20;1.50;;;;;;;;;;5095081;28;20204;-92
2023/10/05 10:44:56;;;;;;;1.55;1.40;;;;;;;;;;5095382;28;20209;-91
2023/10/05 10:47:26;;;;;;;3.05;1.83;;;;;;;;;;5095881;28;20212;-91
2023/10/05 10:50:11;;;;;;;4.43;2.33;;;;;;;;;;5103402;28;20220;-92
2023/10/05 10:52:39;;;;;;;2.60;1.63;;;;;;;;;;5095827;28;20217;-92
2023/10/05 10:55:14;;;;;;;4.15;1.40;;;;;;;;;;5095023;28;20284;-92
2023/10/05 10:57:44;;;;;;;3.42;1.63;;;;;;;;;;5095284;28;20297;-92
2023/10/05 11:02:58;;;;;;;1.83;1.63;;;;;;;;;;5094601;28;20688;-92
2023/10/05 11:05:39;;;;;;;2.92;1.58;;;;;;;;;;5094352;28;20226;-92
2023/10/05 11:08:10;;;;;;;1.33;1.23;;;;;;;;;;5093946;28;20261;-92
2023/10/05 11:10:40;;;;;;;2.33;1.67;;;;;;;;;;5093776;28;20222;-92
2023/10/05 11:13:14;;;;;;;3.70;1.83;;;;;;;;;;5093896;28;20220;-92
2023/10/05 11:15:57;;;;;;;2.53;1.92;;;;;;;;;;5094368;28;20221;-91
2023/10/05 11:18:26;;;;;;;1.67;1.58;;;;;;;;;;5096623;28;20197;-91
2023/10/05 11:20:55;;;;;;;2.15;1.77;;;;;;;;;;5101581;28;20288;-92
2023/10/05 11:23:25;;;;;;;3.92;2.03;;;;;;;;;;5101569;28;20295;-92
2023/10/05 11:26:13;;;;;;;4.72;2.13;;;;;;;;;;5094800;28;20200;-93
2023/10/05 11:28:41;;;;;;;2.55;1.88;;;;;;;;;;5093761;28;20200;-94
2023/10/05 11:31:11;;;;;;;2.63;2.13;;;;;;;;;;5084870;28;20280;-93
2023/10/05 11:33:41;;;;;;;2.42;1.83;;;;;;;;;;5094395;28;20226;-93
2023/10/05 11:36:21;;;;;;;1.92;1.80;;;;;;;;;;5094214;28;20196;-93
2023/10/05 11:38:49;;;;;;;1.25;1.15;;;;;;;;;;5093739;28;20642;-92
2023/10/05 11:41:23;;;;;;;2.67;1.65;;;;;;;;;;5093918;28;20287;-93
2023/10/05 11:43:53;;;;;;;1.45;1.35;;;;;;;;;;5093628;28;20196;-92
2023/10/05 11:46:26;;;;;;;2.35;1.77;;;;;;;;;;5093688;28;20277;-92
2023/10/05 11:48:56;;;;;;;1.98;1.48;;;;;;;;;;5093497;28;20296;-92
2023/10/05 11:51:36;;;;;;;3.15;2.15;;;;;;;;;;5093592;28;20288;-92
2023/10/05 11:54:04;;;;;;;1.90;1.70;;;;;;;;;;5093597;28;20203;-91
2023/10/05 11:56:32;;;;;;;2.85;1.90;;;;;;;;;;5093329;28;20674;-92
2023/10/05 11:59:00;;;;;;;2.75;1.63;;;;;;;;;;5093132;28;20279;-92
2023/10/05 12:01:28;;;;;;;1.77;1.65;;;;;;;;;;5084921;28;20348;-91
2023/10/05 12:03:55;;;;;;;2.35;2.03;;;;;;;;;;5093737;28;20371;-92
2023/10/05 12:06:25;;;;;;;3.28;2.25;;;;;;;;;;5093365;28;20210;-91
2023/10/05 12:09:00;;;;;;;1.98;1.70;;;;;;;;;;5092914;28;20232;-91
2023/10/05 12:11:28;;;;;;;4.95;1.65;;;;;;;;;;5093016;28;20566;-91
2023/10/05 12:13:56;;;;;;;3.83;1.38;;;;;;;;;;5093218;28;20231;-91
2023/10/05 12:16:26;;;;;;;2.40;1.85;;;;;;;;;;5093040;28;20200;-92
2023/10/05 12:18:55;;;;;;;1.58;1.48;;;;;;;;;;5101975;28;20200;-92
2023/10/05 12:21:24;;;;;;;1.77;1.40;;;;;;;;;;5092814;28;20586;-92
2023/10/05 12:23:51;;;;;;;3.10;2.17;;;;;;;;;;5092851;28;20283;-91
2023/10/05 12:26:21;;;;;;;2.90;1.90;;;;;;;;;;5093163;28;20618;-92
2023/10/05 12:28:48;;;;;;;3.15;1.90;;;;;;;;;;5091642;28;20204;-92
2023/10/05 12:31:16;;;;;;;2.83;1.58;;;;;;;;;;5075927;28;20650;-92
2023/10/05 12:33:48;;;;;;;1.95;1.33;;;;;;;;;;5092757;28;20251;-92
2023/10/05 12:36:16;;;;;;;1.88;1.58;;;;;;;;;;5093318;28;20211;-91
2023/10/05 12:38:45;;;;;;;1.42;1.25;;;;;;;;;;5092702;28;20203;-92
2023/10/05 12:41:16;;;;;;;2.28;1.58;;;;;;;;;;5092657;28;20226;-92
2023/10/05 12:43:44;;;;;;;1.58;1.48;;;;;;;;;;5092856;28;20625;-91
2023/10/05 12:46:12;;;;;;;2.33;1.60;;;;;;;;;;5093033;28;20616;-92
2023/10/05 12:48:41;;;;;;;2.17;1.60;;;;;;;;;;5092452;28;20791;-92
2023/10/05 12:51:09;;;;;;;2.47;1.63;;;;;;;;;;5093075;28;20310;-91
2023/10/05 12:53:37;;;;;;;2.22;1.45;;;;;;;;;;5092122;28;20228;-92
2023/10/05 12:56:07;;;;;;;2.42;2.22;;;;;;;;;;5092775;28;20214;-92
2023/10/05 12:58:35;;;;;;;1.88;1.63;;;;;;;;;;5093195;28;20275;-92
2023/10/05 13:01:12;;;;;;;2.38;1.73;;;;;;;;;;5083327;28;20578;-91
2023/10/05 13:03:40;;;;;;;2.38;1.95;;;;;;;;;;5092530;28;20618;-92
2023/10/05 13:06:10;;;;;;;2.13;2.00;;;;;;;;;;5092797;28;20223;-91
2023/10/05 13:08:43;;;;;;;2.53;1.70;;;;;;;;;;5092284;28;20204;-91
2023/10/05 13:11:12;;;;;;;2.58;1.52;;;;;;;;;;5092640;28;20231;-91
2023/10/05 13:13:40;;;;;;;3.20;2.08;;;;;;;;;;5092469;28;20312;-91
2023/10/05 13:16:14;;;;;;;4.80;2.53;;;;;;;;;;5092615;28;20202;-91
2023/10/05 13:18:43;;;;;;;2.15;1.85;;;;;;;;;;5092545;28;20437;-91
2023/10/05 13:21:14;;;;;;;3.92;2.83;;;;;;;;;;5093437;28;20654;-90
2023/10/05 13:23:42;;;;;;;3.05;2.75;;;;;;;;;;5092603;28;20208;-91
2023/10/05 13:26:11;;;;;;;1.52;1.42;;;;;;;;;;5092268;28;20232;-92
2023/10/05 13:28:39;;;;;;;1.83;1.55;;;;;;;;;;5091917;28;20283;-94
2023/10/05 13:31:07;;;;;;;2.42;1.55;;;;;;;;;;5092455;28;20224;-92
2023/10/05 13:33:35;;;;;;;3.28;2.17;;;;;;;;;;5092248;28;20311;-92
2023/10/05 13:36:07;;;;;;;3.15;1.85;;;;;;;;;;5102585;28;20252;-92
2023/10/05 13:38:36;;;;;;;2.58;2.00;;;;;;;;;;5115169;28;20192;-93
2023/10/05 13:41:18;;;;;;;2.35;1.83;;;;;;;;;;5113408;28;20216;-92
2023/10/05 13:43:48;;;;;;;2.03;1.80;;;;;;;;;;5102515;28;20208;-92
2023/10/05 13:46:19;;;;;;;2.20;1.50;;;;;;;;;;5095856;28;20196;-92
2023/10/05 13:48:48;;;;;;;2.47;1.73;;;;;;;;;;5095273;28;20204;-91
2023/10/05 13:51:18;;;;;;;1.60;1.50;;;;;;;;;;5098952;28;20208;-91
2023/10/05 13:53:53;;;;;;;2.70;1.73;;;;;;;;;;5095167;28;20212;-91
2023/10/05 13:56:27;;;;;;;3.80;1.67;;;;;;;;;;5095364;28;20283;-92
2023/10/05 13:59:01;;;;;;;1.98;1.67;;;;;;;;;;5093610;28;20204;-92
2023/10/05 14:01:34;;;;;;;1.80;1.35;;;;;;;;;;5095326;28;20228;-92
2023/10/05 14:04:04;;;;;;;2.00;1.33;;;;;;;;;;5095471;28;20283;-92
2023/10/05 14:06:32;;;;;;;2.40;1.52;;;;;;;;;;5095672;28;20664;-91
2023/10/05 14:09:05;;;;;;;1.38;1.27;;;;;;;;;;5095255;28;20208;-91
2023/10/05 14:11:33;;;;;;;1.98;1.70;;;;;;;;;;5098047;28;20209;-93
2023/10/05 14:14:03;;;;;;;1.65;1.30;;;;;;;;;;5100948;28;20269;-92
2023/10/05 14:16:34;;;;;;;2.22;1.48;;;;;;;;;;5095777;28;20200;-91
2023/10/05 14:19:01;;;;;;;2.47;1.42;;;;;;;;;;5094967;28;20744;-92
2023/10/05 14:21:29;;;;;;;1.67;1.42;;;;;;;;;;5094824;28;20287;-92
2023/10/05 14:23:59;;;;;;;2.05;1.65;;;;;;;;;;5094976;28;20286;-92
2023/10/05 14:26:27;;;;;;;2.35;1.60;;;;;;;;;;5094773;28;20204;-91
2023/10/05 14:28:55;;;;;;;3.28;2.60;;;;;;;;;;5093893;28;20510;-92
2023/10/05 14:31:24;;;;;;;2.85;2.10;;;;;;;;;;5090843;28;20643;-92
2023/10/05 14:33:54;;;;;;;1.83;1.60;;;;;;;;;;5074563;28;20228;-91
2023/10/05 14:36:22;;;;;;;3.03;1.90;;;;;;;;;;5074751;28;20204;-91
2023/10/05 14:38:50;;;;;;;1.98;1.50;;;;;;;;;;5074326;28;20201;-92
2023/10/05 14:41:19;;;;;;;4.70;2.20;;;;;;;;;;5074580;28;20200;-92
2023/10/05 14:43:46;;;;;;;2.55;1.83;;;;;;;;;;5074528;28;20205;-92
2023/10/05 14:46:21;;;;;;;2.75;2.00;;;;;;;;;;5074889;28;20607;-92
2023/10/05 14:48:50;;;;;;;2.15;1.80;;;;;;;;;;5074271;28;20200;-92
2023/10/05 14:51:17;;;;;;;2.50;2.30;;;;;;;;;;5074207;28;20232;-92
2023/10/05 14:53:47;;;;;;;2.80;1.92;;;;;;;;;;5073881;28;20308;-92
2023/10/05 14:56:16;;;;;;;2.95;1.85;;;;;;;;;;5074107;28;20205;-91
2023/10/05 14:58:44;;;;;;;1.42;1.33;;;;;;;;;;5073922;28;20682;-91
2023/10/05 15:01:13;;;;;;;4.55;2.50;;;;;;;;;;5092312;28;20270;-92
2023/10/05 15:03:41;;;;;;;2.97;1.98;;;;;;;;;;5094537;28;20196;-92
2023/10/05 15:06:13;;;;;;;1.75;1.50;;;;;;;;;;5094227;28;20208;-91
2023/10/05 15:08:40;;;;;;;2.97;1.80;;;;;;;;;;5094276;28;20216;-92